Metar Aviation Weather Data KTRI Tri-Cities

34°F Temp
34°F Dewpoint
100% Humidity
Temperature
MPH
0 KM/H
KTS
Calm
Due North

Wind Speed
Mostly Cloudy
Conditions
Pressure 1022.6 (hPa) - 30.2 (in)
Visibility 10.0 (mi) - 16.1 (km)

Current Conditions
KTRI
Tri-Cities
Metar :KTRI 131053Z 00000KT 10SM BKN043 OVC060 01/01 A3020 RMK AO2 SLP226 T00110006
Thu 13th December 06:53 am

Tri-Cities
  Metar Aviation API Data Provided by https://www.checkwx.com/ PHP scripts by weather34.com ©2018